sensor_id;sensor_type;location;lat;lon;timestamp;P1;durP1;ratioP1;P2;durP2;ratioP2
16254;SDS011;8235;52.198;9.904;2022-07-23T00:00:15;9.67;;;6.93;;
16254;SDS011;8235;52.198;9.904;2022-07-23T00:02:42;7.53;;;6.50;;
16254;SDS011;8235;52.198;9.904;2022-07-23T00:05:09;8.20;;;6.30;;
16254;SDS011;8235;52.198;9.904;2022-07-23T00:07:36;7.83;;;5.97;;
16254;SDS011;8235;52.198;9.904;2022-07-23T00:10:03;10.03;;;6.40;;
16254;SDS011;8235;52.198;9.904;2022-07-23T00:12:32;9.13;;;6.90;;
16254;SDS011;8235;52.198;9.904;2022-07-23T00:14:59;7.27;;;6.60;;
16254;SDS011;8235;52.198;9.904;2022-07-23T00:17:25;7.27;;;6.27;;
16254;SDS011;8235;52.198;9.904;2022-07-23T00:19:52;9.40;;;7.00;;
16254;SDS011;8235;52.198;9.904;2022-07-23T00:22:19;8.67;;;6.90;;
16254;SDS011;8235;52.198;9.904;2022-07-23T00:24:45;9.57;;;6.70;;
16254;SDS011;8235;52.198;9.904;2022-07-23T00:27:12;7.63;;;6.30;;
16254;SDS011;8235;52.198;9.904;2022-07-23T00:29:40;7.90;;;6.67;;
16254;SDS011;8235;52.198;9.904;2022-07-23T00:32:06;8.10;;;6.07;;
16254;SDS011;8235;52.198;9.904;2022-07-23T00:34:33;8.63;;;6.27;;
16254;SDS011;8235;52.198;9.904;2022-07-23T00:36:59;9.43;;;6.70;;
16254;SDS011;8235;52.198;9.904;2022-07-23T00:39:26;7.80;;;6.50;;
16254;SDS011;8235;52.198;9.904;2022-07-23T00:41:52;8.20;;;6.60;;
16254;SDS011;8235;52.198;9.904;2022-07-23T00:44:20;10.57;;;6.30;;
16254;SDS011;8235;52.198;9.904;2022-07-23T00:46:50;6.43;;;5.67;;
16254;SDS011;8235;52.198;9.904;2022-07-23T00:49:18;7.13;;;6.33;;
16254;SDS011;8235;52.198;9.904;2022-07-23T00:51:46;7.30;;;6.57;;
16254;SDS011;8235;52.198;9.904;2022-07-23T00:54:13;6.87;;;6.00;;
16254;SDS011;8235;52.198;9.904;2022-07-23T00:56:40;8.80;;;6.77;;
16254;SDS011;8235;52.198;9.904;2022-07-23T00:59:08;7.93;;;6.47;;
16254;SDS011;8235;52.198;9.904;2022-07-23T01:01:35;8.93;;;6.57;;
16254;SDS011;8235;52.198;9.904;2022-07-23T01:04:03;7.87;;;6.53;;
16254;SDS011;8235;52.198;9.904;2022-07-23T01:06:30;8.30;;;6.20;;
16254;SDS011;8235;52.198;9.904;2022-07-23T01:09:00;7.80;;;7.03;;
16254;SDS011;8235;52.198;9.904;2022-07-23T01:11:27;7.03;;;6.13;;
16254;SDS011;8235;52.198;9.904;2022-07-23T01:13:53;7.83;;;7.07;;
16254;SDS011;8235;52.198;9.904;2022-07-23T01:16:20;8.67;;;7.03;;
16254;SDS011;8235;52.198;9.904;2022-07-23T01:18:47;9.50;;;7.37;;
16254;SDS011;8235;52.198;9.904;2022-07-23T01:21:14;9.77;;;6.83;;
16254;SDS011;8235;52.198;9.904;2022-07-23T01:23:45;7.30;;;6.13;;
16254;SDS011;8235;52.198;9.904;2022-07-23T01:26:12;10.03;;;7.50;;
16254;SDS011;8235;52.198;9.904;2022-07-23T01:28:40;6.73;;;6.03;;
16254;SDS011;8235;52.198;9.904;2022-07-23T01:31:07;8.63;;;7.17;;
16254;SDS011;8235;52.198;9.904;2022-07-23T01:33:33;7.97;;;7.13;;
16254;SDS011;8235;52.198;9.904;2022-07-23T01:36:00;9.17;;;6.03;;
16254;SDS011;8235;52.198;9.904;2022-07-23T01:38:26;8.47;;;6.80;;
16254;SDS011;8235;52.198;9.904;2022-07-23T01:40:54;7.27;;;6.27;;
16254;SDS011;8235;52.198;9.904;2022-07-23T01:43:21;7.00;;;6.30;;
16254;SDS011;8235;52.198;9.904;2022-07-23T01:45:47;6.87;;;6.20;;
16254;SDS011;8235;52.198;9.904;2022-07-23T01:48:14;7.83;;;5.93;;
16254;SDS011;8235;52.198;9.904;2022-07-23T01:50:41;9.03;;;6.37;;
16254;SDS011;8235;52.198;9.904;2022-07-23T01:53:08;7.43;;;6.50;;
16254;SDS011;8235;52.198;9.904;2022-07-23T01:55:34;7.97;;;7.10;;
16254;SDS011;8235;52.198;9.904;2022-07-23T01:58:02;8.87;;;7.40;;
16254;SDS011;8235;52.198;9.904;2022-07-23T02:00:29;8.57;;;7.67;;
16254;SDS011;8235;52.198;9.904;2022-07-23T02:02:55;8.70;;;7.70;;
16254;SDS011;8235;52.198;9.904;2022-07-23T02:05:23;8.47;;;7.67;;
16254;SDS011;8235;52.198;9.904;2022-07-23T02:07:50;11.57;;;7.93;;
16254;SDS011;8235;52.198;9.904;2022-07-23T02:10:17;11.83;;;7.60;;
16254;SDS011;8235;52.198;9.904;2022-07-23T02:12:44;9.87;;;8.20;;
16254;SDS011;8235;52.198;9.904;2022-07-23T02:15:11;10.30;;;9.00;;
16254;SDS011;8235;52.198;9.904;2022-07-23T02:17:38;11.87;;;8.73;;
16254;SDS011;8235;52.198;9.904;2022-07-23T02:20:06;11.17;;;8.30;;
16254;SDS011;8235;52.198;9.904;2022-07-23T02:22:35;9.83;;;8.73;;
16254;SDS011;8235;52.198;9.904;2022-07-23T02:25:02;10.60;;;8.10;;
16254;SDS011;8235;52.198;9.904;2022-07-23T02:27:29;11.40;;;9.43;;
16254;SDS011;8235;52.198;9.904;2022-07-23T02:29:55;9.50;;;8.50;;
16254;SDS011;8235;52.198;9.904;2022-07-23T02:32:24;11.57;;;8.97;;
16254;SDS011;8235;52.198;9.904;2022-07-23T02:34:51;12.13;;;9.97;;
16254;SDS011;8235;52.198;9.904;2022-07-23T02:37:17;13.43;;;9.87;;
16254;SDS011;8235;52.198;9.904;2022-07-23T02:39:44;10.43;;;9.27;;
16254;SDS011;8235;52.198;9.904;2022-07-23T02:42:10;13.03;;;8.70;;
16254;SDS011;8235;52.198;9.904;2022-07-23T02:44:37;11.90;;;8.87;;
16254;SDS011;8235;52.198;9.904;2022-07-23T02:47:04;10.17;;;9.07;;
16254;SDS011;8235;52.198;9.904;2022-07-23T02:49:32;12.30;;;8.83;;
16254;SDS011;8235;52.198;9.904;2022-07-23T02:51:58;9.57;;;8.30;;
16254;SDS011;8235;52.198;9.904;2022-07-23T02:54:25;11.60;;;7.67;;
16254;SDS011;8235;52.198;9.904;2022-07-23T02:56:51;11.27;;;8.70;;
16254;SDS011;8235;52.198;9.904;2022-07-23T02:59:18;8.93;;;7.93;;
16254;SDS011;8235;52.198;9.904;2022-07-23T03:01:45;9.87;;;8.37;;
16254;SDS011;8235;52.198;9.904;2022-07-23T03:04:11;9.40;;;8.10;;
16254;SDS011;8235;52.198;9.904;2022-07-23T03:06:39;8.90;;;8.00;;
16254;SDS011;8235;52.198;9.904;2022-07-23T03:09:06;13.37;;;8.20;;
16254;SDS011;8235;52.198;9.904;2022-07-23T03:11:32;9.93;;;8.97;;
16254;SDS011;8235;52.198;9.904;2022-07-23T03:13:59;9.83;;;8.87;;
16254;SDS011;8235;52.198;9.904;2022-07-23T03:16:26;8.93;;;8.03;;
16254;SDS011;8235;52.198;9.904;2022-07-23T03:18:52;9.50;;;8.10;;
16254;SDS011;8235;52.198;9.904;2022-07-23T03:21:19;8.17;;;7.40;;
16254;SDS011;8235;52.198;9.904;2022-07-23T03:23:46;8.43;;;7.27;;
16254;SDS011;8235;52.198;9.904;2022-07-23T03:26:13;7.97;;;7.17;;
16254;SDS011;8235;52.198;9.904;2022-07-23T03:28:39;9.13;;;7.40;;
16254;SDS011;8235;52.198;9.904;2022-07-23T03:31:06;8.30;;;7.03;;
16254;SDS011;8235;52.198;9.904;2022-07-23T03:33:32;8.87;;;6.77;;
16254;SDS011;8235;52.198;9.904;2022-07-23T03:35:59;8.33;;;7.47;;
16254;SDS011;8235;52.198;9.904;2022-07-23T03:38:26;8.10;;;7.03;;
16254;SDS011;8235;52.198;9.904;2022-07-23T03:40:53;8.07;;;6.97;;
16254;SDS011;8235;52.198;9.904;2022-07-23T03:43:20;10.33;;;7.37;;
16254;SDS011;8235;52.198;9.904;2022-07-23T03:45:49;8.20;;;6.57;;
16254;SDS011;8235;52.198;9.904;2022-07-23T03:48:15;8.50;;;7.60;;
16254;SDS011;8235;52.198;9.904;2022-07-23T03:50:42;9.23;;;7.50;;
16254;SDS011;8235;52.198;9.904;2022-07-23T03:53:08;8.03;;;7.20;;
16254;SDS011;8235;52.198;9.904;2022-07-23T03:55:35;8.07;;;7.27;;
16254;SDS011;8235;52.198;9.904;2022-07-23T03:58:03;8.83;;;7.87;;
16254;SDS011;8235;52.198;9.904;2022-07-23T04:00:29;8.10;;;7.30;;
16254;SDS011;8235;52.198;9.904;2022-07-23T04:02:56;8.83;;;6.90;;
16254;SDS011;8235;52.198;9.904;2022-07-23T04:05:23;12.20;;;7.93;;
16254;SDS011;8235;52.198;9.904;2022-07-23T04:07:49;9.40;;;7.10;;
16254;SDS011;8235;52.198;9.904;2022-07-23T04:10:15;9.87;;;7.13;;
16254;SDS011;8235;52.198;9.904;2022-07-23T04:12:42;7.50;;;6.77;;
16254;SDS011;8235;52.198;9.904;2022-07-23T04:15:10;8.70;;;7.40;;
16254;SDS011;8235;52.198;9.904;2022-07-23T04:17:37;8.73;;;7.60;;
16254;SDS011;8235;52.198;9.904;2022-07-23T04:20:03;8.63;;;7.20;;
16254;SDS011;8235;52.198;9.904;2022-07-23T04:22:31;10.23;;;7.77;;
16254;SDS011;8235;52.198;9.904;2022-07-23T04:24:57;9.33;;;7.73;;
16254;SDS011;8235;52.198;9.904;2022-07-23T04:27:24;8.20;;;7.40;;
16254;SDS011;8235;52.198;9.904;2022-07-23T04:29:50;10.43;;;7.87;;
16254;SDS011;8235;52.198;9.904;2022-07-23T04:32:18;12.13;;;8.03;;
16254;SDS011;8235;52.198;9.904;2022-07-23T04:34:45;9.00;;;7.70;;
16254;SDS011;8235;52.198;9.904;2022-07-23T04:37:11;11.87;;;7.10;;
16254;SDS011;8235;52.198;9.904;2022-07-23T04:39:38;9.10;;;8.30;;
16254;SDS011;8235;52.198;9.904;2022-07-23T04:42:04;9.43;;;8.47;;
16254;SDS011;8235;52.198;9.904;2022-07-23T04:44:31;11.93;;;8.53;;
16254;SDS011;8235;52.198;9.904;2022-07-23T04:46:57;11.40;;;8.43;;
16254;SDS011;8235;52.198;9.904;2022-07-23T04:49:25;8.97;;;7.57;;
16254;SDS011;8235;52.198;9.904;2022-07-23T04:51:52;12.20;;;8.43;;
16254;SDS011;8235;52.198;9.904;2022-07-23T04:54:18;10.27;;;8.37;;
16254;SDS011;8235;52.198;9.904;2022-07-23T04:56:45;8.93;;;7.67;;
16254;SDS011;8235;52.198;9.904;2022-07-23T04:59:11;13.93;;;9.10;;
16254;SDS011;8235;52.198;9.904;2022-07-23T05:01:38;9.53;;;8.43;;
16254;SDS011;8235;52.198;9.904;2022-07-23T05:04:05;10.40;;;8.87;;
16254;SDS011;8235;52.198;9.904;2022-07-23T05:06:33;11.03;;;8.33;;
16254;SDS011;8235;52.198;9.904;2022-07-23T05:09:00;10.87;;;8.57;;
16254;SDS011;8235;52.198;9.904;2022-07-23T05:11:26;10.30;;;8.30;;
16254;SDS011;8235;52.198;9.904;2022-07-23T05:13:53;9.03;;;7.90;;
16254;SDS011;8235;52.198;9.904;2022-07-23T05:16:19;9.63;;;8.63;;
16254;SDS011;8235;52.198;9.904;2022-07-23T05:18:46;9.90;;;8.67;;
16254;SDS011;8235;52.198;9.904;2022-07-23T05:21:12;10.90;;;8.30;;
16254;SDS011;8235;52.198;9.904;2022-07-23T05:23:40;10.80;;;9.07;;
16254;SDS011;8235;52.198;9.904;2022-07-23T05:26:07;9.57;;;8.57;;
16254;SDS011;8235;52.198;9.904;2022-07-23T05:28:33;12.57;;;8.80;;
16254;SDS011;8235;52.198;9.904;2022-07-23T05:31:00;11.13;;;8.33;;
16254;SDS011;8235;52.198;9.904;2022-07-23T05:33:26;11.10;;;9.10;;
16254;SDS011;8235;52.198;9.904;2022-07-23T05:35:53;11.03;;;8.70;;
16254;SDS011;8235;52.198;9.904;2022-07-23T05:38:19;9.90;;;9.00;;
16254;SDS011;8235;52.198;9.904;2022-07-23T05:40:47;12.80;;;8.37;;
16254;SDS011;8235;52.198;9.904;2022-07-23T05:43:14;12.63;;;9.53;;
16254;SDS011;8235;52.198;9.904;2022-07-23T05:45:40;9.50;;;8.37;;
16254;SDS011;8235;52.198;9.904;2022-07-23T05:48:07;11.17;;;8.67;;
16254;SDS011;8235;52.198;9.904;2022-07-23T05:50:33;10.87;;;8.70;;
16254;SDS011;8235;52.198;9.904;2022-07-23T05:53:00;11.07;;;9.20;;
16254;SDS011;8235;52.198;9.904;2022-07-23T05:55:27;9.40;;;8.50;;
16254;SDS011;8235;52.198;9.904;2022-07-23T05:57:58;10.13;;;7.90;;
16254;SDS011;8235;52.198;9.904;2022-07-23T06:00:25;12.57;;;8.97;;
16254;SDS011;8235;52.198;9.904;2022-07-23T06:02:53;9.20;;;7.93;;
16254;SDS011;8235;52.198;9.904;2022-07-23T06:05:19;11.47;;;7.80;;
16254;SDS011;8235;52.198;9.904;2022-07-23T06:07:46;10.23;;;7.60;;
16254;SDS011;8235;52.198;9.904;2022-07-23T06:10:12;12.33;;;8.83;;
16254;SDS011;8235;52.198;9.904;2022-07-23T06:12:39;9.30;;;7.73;;
16254;SDS011;8235;52.198;9.904;2022-07-23T06:15:08;9.97;;;7.80;;
16254;SDS011;8235;52.198;9.904;2022-07-23T06:17:35;8.37;;;7.07;;
16254;SDS011;8235;52.198;9.904;2022-07-23T06:20:04;7.30;;;6.60;;
16254;SDS011;8235;52.198;9.904;2022-07-23T06:22:31;6.83;;;5.67;;
16254;SDS011;8235;52.198;9.904;2022-07-23T06:24:57;7.47;;;6.10;;
16254;SDS011;8235;52.198;9.904;2022-07-23T06:27:24;6.10;;;5.47;;
16254;SDS011;8235;52.198;9.904;2022-07-23T06:29:50;6.97;;;5.20;;
16254;SDS011;8235;52.198;9.904;2022-07-23T06:32:18;6.03;;;5.03;;
16254;SDS011;8235;52.198;9.904;2022-07-23T06:34:45;5.33;;;4.43;;
16254;SDS011;8235;52.198;9.904;2022-07-23T06:37:12;5.43;;;3.93;;
16254;SDS011;8235;52.198;9.904;2022-07-23T06:39:38;7.40;;;4.13;;
16254;SDS011;8235;52.198;9.904;2022-07-23T06:42:05;6.20;;;4.50;;
16254;SDS011;8235;52.198;9.904;2022-07-23T06:44:31;6.50;;;4.47;;
16254;SDS011;8235;52.198;9.904;2022-07-23T06:46:58;5.17;;;4.30;;
16254;SDS011;8235;52.198;9.904;2022-07-23T06:49:26;5.87;;;4.53;;
16254;SDS011;8235;52.198;9.904;2022-07-23T06:51:52;8.53;;;4.70;;
16254;SDS011;8235;52.198;9.904;2022-07-23T06:54:18;4.60;;;3.83;;
16254;SDS011;8235;52.198;9.904;2022-07-23T06:56:45;6.13;;;4.47;;
16254;SDS011;8235;52.198;9.904;2022-07-23T06:59:12;6.40;;;4.60;;
16254;SDS011;8235;52.198;9.904;2022-07-23T07:01:38;7.63;;;4.67;;
16254;SDS011;8235;52.198;9.904;2022-07-23T07:04:05;6.83;;;4.20;;
16254;SDS011;8235;52.198;9.904;2022-07-23T07:06:33;5.23;;;4.63;;
16254;SDS011;8235;52.198;9.904;2022-07-23T07:08:59;4.90;;;4.00;;
16254;SDS011;8235;52.198;9.904;2022-07-23T07:11:26;5.53;;;3.90;;
16254;SDS011;8235;52.198;9.904;2022-07-23T07:13:52;6.57;;;4.20;;
16254;SDS011;8235;52.198;9.904;2022-07-23T07:16:19;7.50;;;4.37;;
16254;SDS011;8235;52.198;9.904;2022-07-23T07:18:46;6.97;;;3.97;;
16254;SDS011;8235;52.198;9.904;2022-07-23T07:21:12;3.70;;;3.30;;
16254;SDS011;8235;52.198;9.904;2022-07-23T07:23:40;5.50;;;3.90;;
16254;SDS011;8235;52.198;9.904;2022-07-23T07:26:07;5.33;;;4.00;;
16254;SDS011;8235;52.198;9.904;2022-07-23T07:28:33;6.50;;;4.20;;
16254;SDS011;8235;52.198;9.904;2022-07-23T07:31:00;4.40;;;3.93;;
16254;SDS011;8235;52.198;9.904;2022-07-23T07:33:26;4.80;;;3.60;;
16254;SDS011;8235;52.198;9.904;2022-07-23T07:35:53;5.70;;;3.73;;
16254;SDS011;8235;52.198;9.904;2022-07-23T07:38:20;6.03;;;4.07;;
16254;SDS011;8235;52.198;9.904;2022-07-23T07:40:48;4.30;;;3.40;;
16254;SDS011;8235;52.198;9.904;2022-07-23T07:43:14;5.20;;;3.63;;
16254;SDS011;8235;52.198;9.904;2022-07-23T07:45:41;5.60;;;3.30;;
16254;SDS011;8235;52.198;9.904;2022-07-23T07:48:08;7.37;;;3.57;;
16254;SDS011;8235;52.198;9.904;2022-07-23T07:50:34;6.33;;;2.83;;
16254;SDS011;8235;52.198;9.904;2022-07-23T07:53:01;5.90;;;2.90;;
16254;SDS011;8235;52.198;9.904;2022-07-23T07:55:27;4.93;;;3.10;;
16254;SDS011;8235;52.198;9.904;2022-07-23T07:57:55;4.47;;;3.03;;
16254;SDS011;8235;52.198;9.904;2022-07-23T08:00:21;4.22;;;3.20;;
16254;SDS011;8235;52.198;9.904;2022-07-23T08:02:48;2.73;;;2.30;;
16254;SDS011;8235;52.198;9.904;2022-07-23T08:05:18;4.18;;;2.35;;
16254;SDS011;8235;52.198;9.904;2022-07-23T08:07:45;5.57;;;3.13;;
16254;SDS011;8235;52.198;9.904;2022-07-23T08:10:12;4.82;;;3.53;;
16254;SDS011;8235;52.198;9.904;2022-07-23T08:12:39;3.03;;;2.72;;
16254;SDS011;8235;52.198;9.904;2022-07-23T08:15:12;4.25;;;2.72;;
16254;SDS011;8235;52.198;9.904;2022-07-23T08:17:39;5.10;;;2.35;;
16254;SDS011;8235;52.198;9.904;2022-07-23T08:20:07;3.42;;;3.10;;
16254;SDS011;8235;52.198;9.904;2022-07-23T08:22:45;3.05;;;2.70;;
16254;SDS011;8235;52.198;9.904;2022-07-23T08:25:13;4.50;;;2.80;;
16254;SDS011;8235;52.198;9.904;2022-07-23T08:27:40;4.38;;;2.67;;
16254;SDS011;8235;52.198;9.904;2022-07-23T08:30:07;4.22;;;3.70;;
16254;SDS011;8235;52.198;9.904;2022-07-23T08:32:48;4.82;;;3.90;;
16254;SDS011;8235;52.198;9.904;2022-07-23T08:35:16;5.10;;;2.95;;
16254;SDS011;8235;52.198;9.904;2022-07-23T08:37:42;3.40;;;3.10;;
16254;SDS011;8235;52.198;9.904;2022-07-23T08:40:10;5.80;;;2.78;;
16254;SDS011;8235;52.198;9.904;2022-07-23T08:42:37;3.08;;;2.70;;
16254;SDS011;8235;52.198;9.904;2022-07-23T08:45:04;3.20;;;2.50;;
16254;SDS011;8235;52.198;9.904;2022-07-23T08:47:33;2.97;;;2.28;;
16254;SDS011;8235;52.198;9.904;2022-07-23T08:50:03;3.25;;;2.33;;
16254;SDS011;8235;52.198;9.904;2022-07-23T08:52:30;3.25;;;2.22;;
16254;SDS011;8235;52.198;9.904;2022-07-23T08:54:57;3.10;;;2.13;;
16254;SDS011;8235;52.198;9.904;2022-07-23T08:57:24;3.47;;;2.10;;
16254;SDS011;8235;52.198;9.904;2022-07-23T08:59:50;4.05;;;2.38;;
16254;SDS011;8235;52.198;9.904;2022-07-23T09:02:17;2.95;;;2.63;;
16254;SDS011;8235;52.198;9.904;2022-07-23T09:04:44;4.20;;;1.98;;
16254;SDS011;8235;52.198;9.904;2022-07-23T09:07:12;2.00;;;1.73;;
16254;SDS011;8235;52.198;9.904;2022-07-23T09:09:39;3.58;;;1.90;;
16254;SDS011;8235;52.198;9.904;2022-07-23T09:12:06;2.10;;;1.75;;
16254;SDS011;8235;52.198;9.904;2022-07-23T09:14:37;3.78;;;1.73;;
16254;SDS011;8235;52.198;9.904;2022-07-23T09:17:09;5.60;;;2.63;;
16254;SDS011;8235;52.198;9.904;2022-07-23T09:19:36;3.03;;;1.88;;
16254;SDS011;8235;52.198;9.904;2022-07-23T09:22:23;3.72;;;2.10;;
16254;SDS011;8235;52.198;9.904;2022-07-23T09:25:02;3.10;;;1.80;;
16254;SDS011;8235;52.198;9.904;2022-07-23T09:27:47;2.13;;;1.92;;
16254;SDS011;8235;52.198;9.904;2022-07-23T09:30:17;3.15;;;2.13;;
16254;SDS011;8235;52.198;9.904;2022-07-23T09:32:44;3.22;;;1.95;;
16254;SDS011;8235;52.198;9.904;2022-07-23T09:35:33;2.30;;;2.05;;
16254;SDS011;8235;52.198;9.904;2022-07-23T09:38:11;3.33;;;1.88;;
16254;SDS011;8235;52.198;9.904;2022-07-23T09:40:38;3.67;;;2.10;;
16254;SDS011;8235;52.198;9.904;2022-07-23T09:43:04;2.88;;;1.92;;
16254;SDS011;8235;52.198;9.904;2022-07-23T09:45:31;1.70;;;1.60;;
16254;SDS011;8235;52.198;9.904;2022-07-23T09:48:09;3.00;;;1.83;;
16254;SDS011;8235;52.198;9.904;2022-07-23T09:50:36;2.58;;;1.80;;
16254;SDS011;8235;52.198;9.904;2022-07-23T09:53:06;1.85;;;1.67;;
16254;SDS011;8235;52.198;9.904;2022-07-23T09:55:35;2.97;;;2.00;;
16254;SDS011;8235;52.198;9.904;2022-07-23T09:58:03;2.78;;;1.88;;
16254;SDS011;8235;52.198;9.904;2022-07-23T10:00:31;3.90;;;1.65;;
16254;SDS011;8235;52.198;9.904;2022-07-23T10:02:59;3.97;;;1.80;;
16254;SDS011;8235;52.198;9.904;2022-07-23T10:05:26;2.67;;;2.00;;
16254;SDS011;8235;52.198;9.904;2022-07-23T10:07:54;2.30;;;1.70;;
16254;SDS011;8235;52.198;9.904;2022-07-23T10:10:22;2.55;;;1.90;;
16254;SDS011;8235;52.198;9.904;2022-07-23T10:12:54;4.57;;;1.90;;
16254;SDS011;8235;52.198;9.904;2022-07-23T10:15:37;4.07;;;2.30;;
16254;SDS011;8235;52.198;9.904;2022-07-23T10:18:08;2.78;;;1.98;;
16254;SDS011;8235;52.198;9.904;2022-07-23T10:20:37;4.38;;;2.00;;
16254;SDS011;8235;52.198;9.904;2022-07-23T10:23:05;1.80;;;1.58;;
16254;SDS011;8235;52.198;9.904;2022-07-23T10:25:41;2.85;;;2.00;;
16254;SDS011;8235;52.198;9.904;2022-07-23T10:28:22;2.95;;;1.95;;
16254;SDS011;8235;52.198;9.904;2022-07-23T10:31:09;5.82;;;2.15;;
16254;SDS011;8235;52.198;9.904;2022-07-23T10:33:46;2.13;;;1.70;;
16254;SDS011;8235;52.198;9.904;2022-07-23T10:36:30;2.45;;;1.60;;
16254;SDS011;8235;52.198;9.904;2022-07-23T10:39:08;2.17;;;1.90;;
16254;SDS011;8235;52.198;9.904;2022-07-23T10:41:44;2.88;;;1.50;;
16254;SDS011;8235;52.198;9.904;2022-07-23T10:44:12;2.60;;;1.70;;
16254;SDS011;8235;52.198;9.904;2022-07-23T10:46:56;3.58;;;1.90;;
16254;SDS011;8235;52.198;9.904;2022-07-23T10:49:35;2.83;;;1.90;;
16254;SDS011;8235;52.198;9.904;2022-07-23T10:52:19;2.28;;;1.50;;
16254;SDS011;8235;52.198;9.904;2022-07-23T10:54:47;2.20;;;1.77;;
16254;SDS011;8235;52.198;9.904;2022-07-23T10:57:16;2.35;;;1.70;;
16254;SDS011;8235;52.198;9.904;2022-07-23T11:02:47;4.65;;;1.73;;
16254;SDS011;8235;52.198;9.904;2022-07-23T11:05:15;3.40;;;1.80;;
16254;SDS011;8235;52.198;9.904;2022-07-23T11:10:42;2.55;;;1.58;;
16254;SDS011;8235;52.198;9.904;2022-07-23T11:13:30;3.45;;;1.70;;
16254;SDS011;8235;52.198;9.904;2022-07-23T11:16:18;1.85;;;1.40;;
16254;SDS011;8235;52.198;9.904;2022-07-23T11:18:53;2.58;;;1.30;;
16254;SDS011;8235;52.198;9.904;2022-07-23T11:21:45;1.92;;;1.50;;
16254;SDS011;8235;52.198;9.904;2022-07-23T11:24:19;1.70;;;1.40;;
16254;SDS011;8235;52.198;9.904;2022-07-23T11:26:48;1.65;;;1.30;;
16254;SDS011;8235;52.198;9.904;2022-07-23T11:35:20;3.47;;;1.65;;
16254;SDS011;8235;52.198;9.904;2022-07-23T11:37:48;2.88;;;1.52;;
16254;SDS011;8235;52.198;9.904;2022-07-23T11:40:19;1.30;;;1.20;;
16254;SDS011;8235;52.198;9.904;2022-07-23T11:42:51;3.08;;;1.30;;
16254;SDS011;8235;52.198;9.904;2022-07-23T11:45:19;2.10;;;1.33;;
16254;SDS011;8235;52.198;9.904;2022-07-23T11:47:48;1.95;;;1.30;;
16254;SDS011;8235;52.198;9.904;2022-07-23T11:50:14;2.85;;;1.58;;
16254;SDS011;8235;52.198;9.904;2022-07-23T11:52:41;2.38;;;1.10;;
16254;SDS011;8235;52.198;9.904;2022-07-23T11:55:08;2.33;;;1.20;;
16254;SDS011;8235;52.198;9.904;2022-07-23T11:57:38;2.13;;;1.20;;
16254;SDS011;8235;52.198;9.904;2022-07-23T12:00:06;3.05;;;1.35;;
16254;SDS011;8235;52.198;9.904;2022-07-23T12:02:35;4.55;;;1.38;;
16254;SDS011;8235;52.198;9.904;2022-07-23T12:05:04;3.10;;;1.10;;
16254;SDS011;8235;52.198;9.904;2022-07-23T12:07:33;1.88;;;1.10;;
16254;SDS011;8235;52.198;9.904;2022-07-23T12:10:03;3.22;;;1.10;;
16254;SDS011;8235;52.198;9.904;2022-07-23T12:12:36;3.10;;;1.30;;
16254;SDS011;8235;52.198;9.904;2022-07-23T12:15:05;1.92;;;1.00;;
16254;SDS011;8235;52.198;9.904;2022-07-23T12:17:34;2.60;;;1.25;;
16254;SDS011;8235;52.198;9.904;2022-07-23T12:20:06;2.00;;;1.10;;
16254;SDS011;8235;52.198;9.904;2022-07-23T12:22:36;1.98;;;1.40;;
16254;SDS011;8235;52.198;9.904;2022-07-23T12:25:05;1.63;;;1.10;;
16254;SDS011;8235;52.198;9.904;2022-07-23T12:27:34;2.28;;;1.10;;
16254;SDS011;8235;52.198;9.904;2022-07-23T12:30:14;1.15;;;0.93;;
16254;SDS011;8235;52.198;9.904;2022-07-23T12:32:42;1.35;;;1.08;;
16254;SDS011;8235;52.198;9.904;2022-07-23T12:35:12;2.47;;;0.95;;
16254;SDS011;8235;52.198;9.904;2022-07-23T12:37:39;1.55;;;1.00;;
16254;SDS011;8235;52.198;9.904;2022-07-23T12:40:19;1.33;;;0.90;;
16254;SDS011;8235;52.198;9.904;2022-07-23T12:42:52;1.40;;;0.82;;
16254;SDS011;8235;52.198;9.904;2022-07-23T12:45:20;2.08;;;0.90;;
16254;SDS011;8235;52.198;9.904;2022-07-23T12:47:50;2.08;;;0.80;;
16254;SDS011;8235;52.198;9.904;2022-07-23T12:50:37;1.85;;;0.80;;
16254;SDS011;8235;52.198;9.904;2022-07-23T12:53:09;2.85;;;1.00;;
16254;SDS011;8235;52.198;9.904;2022-07-23T12:55:38;1.55;;;0.80;;
16254;SDS011;8235;52.198;9.904;2022-07-23T12:58:09;2.10;;;1.15;;
16254;SDS011;8235;52.198;9.904;2022-07-23T13:03:36;3.08;;;1.08;;
16254;SDS011;8235;52.198;9.904;2022-07-23T13:06:06;1.48;;;0.88;;
16254;SDS011;8235;52.198;9.904;2022-07-23T13:08:34;1.45;;;0.95;;
16254;SDS011;8235;52.198;9.904;2022-07-23T13:11:02;1.92;;;0.80;;
16254;SDS011;8235;52.198;9.904;2022-07-23T13:13:31;1.42;;;1.13;;
16254;SDS011;8235;52.198;9.904;2022-07-23T13:15:58;1.65;;;0.80;;
16254;SDS011;8235;52.198;9.904;2022-07-23T13:18:25;3.60;;;1.02;;
16254;SDS011;8235;52.198;9.904;2022-07-23T13:20:53;1.50;;;0.90;;
16254;SDS011;8235;52.198;9.904;2022-07-23T13:23:21;1.65;;;0.80;;
16254;SDS011;8235;52.198;9.904;2022-07-23T13:25:48;1.63;;;0.80;;
16254;SDS011;8235;52.198;9.904;2022-07-23T13:28:16;2.90;;;0.82;;
16254;SDS011;8235;52.198;9.904;2022-07-23T13:30:43;1.45;;;0.75;;
16254;SDS011;8235;52.198;9.904;2022-07-23T13:33:11;1.45;;;0.90;;
16254;SDS011;8235;52.198;9.904;2022-07-23T13:35:38;2.80;;;0.77;;
16254;SDS011;8235;52.198;9.904;2022-07-23T13:38:05;3.03;;;0.68;;
16254;SDS011;8235;52.198;9.904;2022-07-23T13:40:34;0.93;;;0.70;;
16254;SDS011;8235;52.198;9.904;2022-07-23T13:43:03;1.95;;;0.80;;
16254;SDS011;8235;52.198;9.904;2022-07-23T13:45:30;2.28;;;0.85;;
16254;SDS011;8235;52.198;9.904;2022-07-23T13:47:57;1.55;;;0.75;;
16254;SDS011;8235;52.198;9.904;2022-07-23T13:50:24;1.02;;;0.70;;
16254;SDS011;8235;52.198;9.904;2022-07-23T13:52:50;2.15;;;0.90;;
16254;SDS011;8235;52.198;9.904;2022-07-23T13:55:17;0.93;;;0.80;;
16254;SDS011;8235;52.198;9.904;2022-07-23T13:57:45;1.60;;;0.50;;
16254;SDS011;8235;52.198;9.904;2022-07-23T14:00:11;2.53;;;0.98;;
16254;SDS011;8235;52.198;9.904;2022-07-23T14:02:39;1.50;;;0.88;;
16254;SDS011;8235;52.198;9.904;2022-07-23T14:05:08;2.05;;;0.90;;
16254;SDS011;8235;52.198;9.904;2022-07-23T14:07:36;0.93;;;0.57;;
16254;SDS011;8235;52.198;9.904;2022-07-23T14:10:03;0.88;;;0.60;;
16254;SDS011;8235;52.198;9.904;2022-07-23T14:12:31;1.77;;;0.60;;
16254;SDS011;8235;52.198;9.904;2022-07-23T14:14:59;2.58;;;0.75;;
16254;SDS011;8235;52.198;9.904;2022-07-23T14:17:25;1.13;;;0.60;;
16254;SDS011;8235;52.198;9.904;2022-07-23T14:19:52;3.00;;;0.63;;
16254;SDS011;8235;52.198;9.904;2022-07-23T14:22:19;1.92;;;0.70;;
16254;SDS011;8235;52.198;9.904;2022-07-23T14:24:45;1.00;;;0.73;;
16254;SDS011;8235;52.198;9.904;2022-07-23T14:27:12;1.38;;;0.70;;
16254;SDS011;8235;52.198;9.904;2022-07-23T14:29:38;2.25;;;0.60;;
16254;SDS011;8235;52.198;9.904;2022-07-23T14:32:06;1.55;;;0.60;;
16254;SDS011;8235;52.198;9.904;2022-07-23T14:34:33;1.65;;;0.70;;
16254;SDS011;8235;52.198;9.904;2022-07-23T14:37:00;1.65;;;0.60;;
16254;SDS011;8235;52.198;9.904;2022-07-23T14:39:27;1.55;;;0.70;;
16254;SDS011;8235;52.198;9.904;2022-07-23T14:41:54;1.15;;;0.60;;
16254;SDS011;8235;52.198;9.904;2022-07-23T14:44:20;1.58;;;0.50;;
16254;SDS011;8235;52.198;9.904;2022-07-23T14:46:47;1.40;;;0.60;;
16254;SDS011;8235;52.198;9.904;2022-07-23T14:49:15;1.48;;;0.70;;
16254;SDS011;8235;52.198;9.904;2022-07-23T14:51:41;1.02;;;0.75;;
16254;SDS011;8235;52.198;9.904;2022-07-23T14:54:08;2.38;;;0.60;;
16254;SDS011;8235;52.198;9.904;2022-07-23T14:56:35;0.70;;;0.68;;
16254;SDS011;8235;52.198;9.904;2022-07-23T14:59:02;1.10;;;0.52;;
16254;SDS011;8235;52.198;9.904;2022-07-23T15:01:28;0.80;;;0.50;;
16254;SDS011;8235;52.198;9.904;2022-07-23T15:03:55;1.25;;;0.50;;
16254;SDS011;8235;52.198;9.904;2022-07-23T15:06:23;1.33;;;0.63;;
16254;SDS011;8235;52.198;9.904;2022-07-23T15:08:49;1.98;;;0.80;;
16254;SDS011;8235;52.198;9.904;2022-07-23T15:11:16;2.05;;;0.70;;
16254;SDS011;8235;52.198;9.904;2022-07-23T15:13:43;1.25;;;0.80;;
16254;SDS011;8235;52.198;9.904;2022-07-23T15:16:09;2.05;;;0.80;;
16254;SDS011;8235;52.198;9.904;2022-07-23T15:18:36;1.10;;;0.70;;
16254;SDS011;8235;52.198;9.904;2022-07-23T15:21:03;1.83;;;0.90;;